Time;durP1;ratioP1;P1;durP2;ratioP2;P2;SDS_P1;SDS_P2;PMS_P1;PMS_P2;Temp;Humidity;BMP_temperature;BMP_pressure;BME280_temperature;BME280_humidity;BME280_pressure;Samples;Min_cycle;Max_cycle;Signal;HPM_P1;HPM_P2
2023/06/16 00:01:06;;;;;;;0.00;0.00;;;16.80;99.90;;;;;;5087699;28;20439;-78
2023/06/16 00:03:34;;;;;;;0.00;0.00;;;16.60;99.90;;;;;;5086511;28;20435;-79
2023/06/16 00:06:13;;;;;;;0.00;0.00;;;16.60;99.90;;;;;;5088851;28;20570;-79
2023/06/16 00:08:47;;;;;;;0.00;0.00;;;16.60;99.90;;;;;;5088193;28;20468;-79
2023/06/16 00:11:14;;;;;;;0.00;0.00;;;16.40;99.90;;;;;;5085937;28;20462;-79
2023/06/16 00:13:40;;;;;;;0.00;0.00;;;16.50;99.90;;;;;;5072571;28;20465;-79
2023/06/16 00:16:06;;;;;;;0.00;0.00;;;16.60;99.90;;;;;;5084329;28;20458;-79
2023/06/16 00:18:32;;;;;;;0.00;0.00;;;16.60;99.90;;;;;;5069818;28;20451;-79
2023/06/16 00:21:01;;;;;;;0.00;0.00;;;16.50;99.90;;;;;;5085725;28;20261;-79
2023/06/16 00:23:28;;;;;;;0.00;0.00;;;16.60;99.90;;;;;;5069468;28;20454;-79
2023/06/16 00:25:53;;;;;;;0.00;0.00;;;16.50;99.90;;;;;;5088183;28;20527;-79
2023/06/16 00:28:19;;;;;;;0.00;0.00;;;16.60;99.90;;;;;;5088321;28;20463;-79
2023/06/16 00:30:45;;;;;;;0.00;0.00;;;16.60;99.90;;;;;;5087946;28;20176;-79
2023/06/16 00:33:12;;;;;;;0.00;0.00;;;16.50;99.90;;;;;;5088928;28;20434;-79
2023/06/16 00:35:38;;;;;;;0.00;0.00;;;16.20;99.90;;;;;;5088866;28;20189;-79
2023/06/16 00:38:04;;;;;;;0.00;0.00;;;16.30;99.90;;;;;;5068374;28;20451;-79
2023/06/16 00:40:29;;;;;;;0.00;0.00;;;16.30;99.90;;;;;;5088919;28;20189;-79
2023/06/16 00:42:58;;;;;;;0.00;0.00;;;16.40;99.90;;;;;;5088885;28;20185;-78
2023/06/16 00:45:24;;;;;;;0.00;0.00;;;16.40;99.90;;;;;;5086594;28;20296;-79
2023/06/16 00:47:51;;;;;;;0.00;0.00;;;16.40;99.90;;;;;;5088660;28;20450;-79
2023/06/16 00:50:20;;;;;;;0.00;0.00;;;16.40;99.90;;;;;;5093317;28;20458;-79
2023/06/16 00:52:45;;;;;;;0.00;0.00;;;16.40;99.90;;;;;;5092798;28;20465;-79
2023/06/16 00:55:11;;;;;;;0.00;0.00;;;16.30;99.90;;;;;;5090960;28;20439;-79
2023/06/16 00:57:38;;;;;;;0.00;0.00;;;16.20;99.90;;;;;;5093336;28;20181;-79
2023/06/16 01:00:14;;;;;;;0.00;0.00;;;16.20;99.90;;;;;;5074104;28;20213;-79
2023/06/16 01:02:40;;;;;;;0.00;0.00;;;16.10;99.90;;;;;;5092068;28;20500;-79
2023/06/16 01:05:10;;;;;;;0.00;0.00;;;16.20;99.90;;;;;;5089077;28;20483;-78
2023/06/16 01:07:47;;;;;;;0.00;0.00;;;16.30;99.90;;;;;;5089992;28;20193;-77
2023/06/16 01:10:33;;;;;;;0.00;0.00;;;16.20;99.90;;;;;;5089642;28;20773;-78
2023/06/16 01:13:07;;;;;;;0.00;0.00;;;16.30;99.90;;;;;;5091805;28;20439;-79
2023/06/16 01:15:35;;;;;;;0.00;0.00;;;16.30;99.90;;;;;;5091215;28;20434;-78
2023/06/16 01:18:01;;;;;;;0.00;0.00;;;16.40;99.90;;;;;;5073524;28;20426;-79
2023/06/16 01:20:48;;;;;;;0.00;0.00;;;16.40;99.90;;;;;;5091835;28;20478;-79
2023/06/16 01:23:25;;;;;;;0.00;0.00;;;16.40;99.90;;;;;;5092366;28;20525;-78
2023/06/16 01:25:55;;;;;;;0.00;0.00;;;16.40;99.90;;;;;;5098344;28;20481;-78
2023/06/16 01:28:23;;;;;;;0.00;0.00;;;16.40;99.90;;;;;;5091776;28;20431;-78
2023/06/16 01:30:50;;;;;;;0.00;0.00;;;16.40;99.90;;;;;;5073233;28;20443;-79
2023/06/16 01:33:20;;;;;;;0.00;0.00;;;16.40;99.90;;;;;;5091422;28;20958;-78
2023/06/16 01:35:47;;;;;;;0.00;0.00;;;16.40;99.90;;;;;;5070279;28;20920;-78
2023/06/16 01:38:13;;;;;;;0.00;0.00;;;16.30;99.90;;;;;;5082432;28;20431;-79
2023/06/16 01:40:41;;;;;;;0.00;0.00;;;16.40;99.90;;;;;;5089455;28;20438;-79
2023/06/16 01:43:08;;;;;;;0.00;0.00;;;16.40;99.90;;;;;;5090538;28;20545;-79
2023/06/16 01:45:34;;;;;;;0.00;0.00;;;16.40;99.90;;;;;;5074648;28;20467;-79
2023/06/16 01:48:00;;;;;;;0.00;0.00;;;16.40;99.90;;;;;;5090297;28;20458;-79
2023/06/16 01:50:26;;;;;;;0.00;0.00;;;16.30;99.90;;;;;;5091317;28;20850;-79
2023/06/16 01:52:51;;;;;;;0.00;0.00;;;16.30;99.90;;;;;;5091014;28;20497;-78
2023/06/16 01:55:17;;;;;;;0.00;0.00;;;16.30;99.90;;;;;;5087344;28;20544;-78
2023/06/16 01:57:43;;;;;;;0.00;0.00;;;16.30;99.90;;;;;;5088810;28;20235;-78
2023/06/16 02:00:19;;;;;;;0.00;0.00;;;16.20;99.90;;;;;;5086669;28;20185;-79
2023/06/16 02:03:03;;;;;;;0.00;0.00;;;16.00;99.90;;;;;;5091228;28;20276;-78
2023/06/16 02:05:31;;;;;;;0.00;0.00;;;16.20;99.90;;;;;;5091019;28;20782;-78
2023/06/16 02:07:58;;;;;;;0.00;0.00;;;16.20;99.90;;;;;;5092474;28;20419;-78
2023/06/16 02:10:25;;;;;;;0.00;0.00;;;15.90;99.90;;;;;;5091345;28;20511;-78
2023/06/16 02:12:51;;;;;;;0.00;0.00;;;15.90;99.90;;;;;;5092296;28;20451;-78
2023/06/16 02:15:18;;;;;;;0.00;0.00;;;15.90;99.90;;;;;;5088336;28;20481;-78
2023/06/16 02:17:44;;;;;;;0.00;0.00;;;15.90;99.90;;;;;;5090409;28;20185;-78
2023/06/16 02:20:11;;;;;;;0.00;0.00;;;15.90;99.90;;;;;;5072879;28;21020;-78
2023/06/16 02:22:37;;;;;;;0.00;0.00;;;16.00;99.90;;;;;;5087882;28;20505;-78
2023/06/16 02:25:03;;;;;;;0.00;0.00;;;15.90;99.90;;;;;;5090189;28;20443;-78
2023/06/16 02:27:28;;;;;;;0.00;0.00;;;16.10;99.90;;;;;;5092039;28;20200;-79
2023/06/16 02:29:54;;;;;;;0.00;0.00;;;16.10;99.90;;;;;;5072402;28;20474;-78
2023/06/16 02:32:19;;;;;;;0.00;0.00;;;16.00;99.90;;;;;;5087982;28;20268;-78
2023/06/16 02:34:46;;;;;;;0.00;0.00;;;15.90;99.90;;;;;;5090739;28;20257;-78
2023/06/16 02:37:13;;;;;;;0.00;0.00;;;15.80;99.90;;;;;;5092118;28;20181;-78
2023/06/16 02:39:39;;;;;;;0.00;0.00;;;15.80;99.90;;;;;;5096402;28;20442;-79
2023/06/16 02:42:05;;;;;;;0.00;0.00;;;15.80;99.90;;;;;;5095464;28;20472;-78
2023/06/16 02:44:31;;;;;;;0.00;0.00;;;15.90;99.90;;;;;;5100024;28;20473;-78
2023/06/16 02:46:57;;;;;;;0.00;0.00;;;15.60;99.90;;;;;;5072571;28;20474;-78
2023/06/16 02:49:23;;;;;;;0.00;0.00;;;15.50;99.90;;;;;;5089565;28;20181;-78
2023/06/16 02:51:50;;;;;;;0.00;0.00;;;15.50;99.90;;;;;;5090204;28;20469;-78
2023/06/16 02:54:15;;;;;;;0.00;0.00;;;15.40;99.90;;;;;;5090477;28;20185;-78
2023/06/16 02:56:41;;;;;;;0.00;0.00;;;15.40;99.90;;;;;;5091174;28;20965;-78
2023/06/16 02:59:07;;;;;;;0.00;0.00;;;15.40;99.90;;;;;;5090479;28;20254;-79
2023/06/16 03:01:32;;;;;;;0.00;0.00;;;15.40;99.90;;;;;;5089723;28;20203;-78
2023/06/16 03:04:00;;;;;;;0.00;0.00;;;15.30;99.90;;;;;;5082105;28;20227;-78
2023/06/16 03:06:29;;;;;;;0.00;0.00;;;15.30;99.90;;;;;;5090791;28;20236;-78
2023/06/16 03:08:57;;;;;;;0.00;0.00;;;15.20;99.90;;;;;;5089849;28;20447;-78
2023/06/16 03:11:22;;;;;;;0.00;0.00;;;15.30;99.90;;;;;;5090206;28;20423;-78
2023/06/16 03:13:48;;;;;;;0.00;0.00;;;15.30;99.90;;;;;;5089894;28;20443;-78
2023/06/16 03:16:14;;;;;;;0.00;0.00;;;15.30;99.90;;;;;;5089577;28;20670;-78
2023/06/16 03:18:39;;;;;;;0.00;0.00;;;15.20;99.90;;;;;;5088563;28;20272;-78
2023/06/16 03:21:05;;;;;;;0.00;0.00;;;15.20;99.90;;;;;;5072979;28;20242;-79
2023/06/16 03:23:30;;;;;;;0.00;0.00;;;15.20;99.90;;;;;;5087789;28;20236;-78
2023/06/16 03:25:56;;;;;;;0.00;0.00;;;15.20;99.90;;;;;;5089865;28;20631;-78
2023/06/16 03:28:23;;;;;;;0.00;0.00;;;15.10;99.90;;;;;;5088942;28;20190;-78
2023/06/16 03:30:52;;;;;;;0.00;0.00;;;15.20;99.90;;;;;;5088679;28;20462;-79
2023/06/16 03:33:18;;;;;;;0.00;0.00;;;15.20;99.90;;;;;;5090210;28;20481;-79
2023/06/16 03:35:44;;;;;;;0.00;0.00;;;15.30;99.90;;;;;;5071334;28;20459;-79
2023/06/16 03:38:10;;;;;;;0.00;0.00;;;15.20;99.90;;;;;;5089624;28;21037;-78
2023/06/16 03:40:35;;;;;;;0.00;0.00;;;15.10;99.90;;;;;;5084920;28;20433;-78
2023/06/16 03:43:02;;;;;;;0.00;0.00;;;15.10;99.90;;;;;;5086621;28;20532;-78
2023/06/16 03:45:27;;;;;;;0.00;0.00;;;15.20;99.90;;;;;;5091482;28;20197;-78
2023/06/16 03:47:53;;;;;;;0.00;0.00;;;15.10;99.90;;;;;;5095554;28;20470;-78
2023/06/16 03:50:18;;;;;;;0.00;0.00;;;15.10;99.90;;;;;;5075125;28;20272;-78
2023/06/16 03:52:44;;;;;;;0.00;0.00;;;15.10;99.90;;;;;;5094429;28;20849;-78
2023/06/16 03:55:10;;;;;;;0.00;0.00;;;15.20;99.90;;;;;;5087496;28;20250;-77
2023/06/16 03:57:35;;;;;;;0.00;0.00;;;15.30;99.90;;;;;;5069722;28;20193;-78
2023/06/16 04:00:03;;;;;;;0.00;0.00;;;15.30;99.90;;;;;;5090174;28;20645;-78
2023/06/16 04:02:28;;;;;;;0.00;0.00;;;15.10;99.90;;;;;;5086518;28;20181;-78
2023/06/16 04:04:56;;;;;;;0.00;0.00;;;15.20;99.90;;;;;;5089244;28;20474;-78
2023/06/16 04:07:22;;;;;;;0.00;0.00;;;15.20;99.90;;;;;;5080809;28;20177;-78
2023/06/16 04:09:48;;;;;;;0.00;0.00;;;15.20;99.90;;;;;;5087563;28;20431;-78
2023/06/16 04:12:13;;;;;;;0.00;0.00;;;15.10;99.90;;;;;;5088614;28;20453;-78
2023/06/16 04:14:39;;;;;;;0.00;0.00;;;15.10;99.90;;;;;;5071384;28;20200;-78
2023/06/16 04:17:04;;;;;;;0.00;0.00;;;15.10;99.90;;;;;;5071546;28;20196;-78
2023/06/16 04:19:30;;;;;;;0.00;0.00;;;15.20;99.90;;;;;;5087626;28;20189;-78
2023/06/16 04:21:58;;;;;;;0.00;0.00;;;15.10;99.90;;;;;;5071845;28;20513;-78
2023/06/16 04:24:23;;;;;;;0.00;0.00;;;15.00;99.90;;;;;;5093618;28;20238;-78
2023/06/16 04:26:49;;;;;;;0.00;0.00;;;15.10;99.90;;;;;;5093164;28;20961;-78
2023/06/16 04:29:14;;;;;;;0.00;0.00;;;15.20;99.90;;;;;;5093180;28;20188;-78
2023/06/16 04:31:42;;;;;;;0.00;0.00;;;15.20;99.90;;;;;;5070214;28;20224;-78
2023/06/16 04:34:10;;;;;;;0.00;0.00;;;15.10;99.90;;;;;;5089513;28;20291;-78
2023/06/16 04:36:41;;;;;;;0.00;0.00;;;15.30;99.90;;;;;;5092432;28;20442;-79
2023/06/16 04:39:07;;;;;;;0.00;0.00;;;15.10;99.90;;;;;;5085642;28;20931;-78
2023/06/16 04:41:35;;;;;;;0.00;0.00;;;15.20;99.90;;;;;;5091852;28;20458;-78
2023/06/16 04:44:01;;;;;;;0.00;0.00;;;15.10;99.90;;;;;;5093620;28;20173;-79
2023/06/16 04:46:26;;;;;;;0.00;0.00;;;15.10;99.90;;;;;;5074568;28;20486;-78
2023/06/16 04:48:51;;;;;;;0.00;0.00;;;15.10;99.90;;;;;;5091360;28;20474;-78
2023/06/16 04:51:18;;;;;;;0.00;0.00;;;15.20;99.90;;;;;;5092173;28;20551;-78
2023/06/16 04:53:44;;;;;;;0.00;0.00;;;15.20;99.90;;;;;;5074425;28;20238;-79
2023/06/16 04:56:09;;;;;;;0.00;0.00;;;15.30;99.90;;;;;;5092197;28;20423;-79
2023/06/16 04:58:35;;;;;;;0.00;0.00;;;15.40;99.90;;;;;;5086966;28;20544;-79
2023/06/16 05:01:00;;;;;;;0.00;0.00;;;15.40;99.90;;;;;;5090114;28;20558;-79
2023/06/16 05:03:26;;;;;;;0.00;0.00;;;15.30;99.90;;;;;;5089913;28;20602;-79
2023/06/16 05:05:52;;;;;;;0.00;0.00;;;15.30;99.90;;;;;;5085935;28;20259;-79
2023/06/16 05:08:18;;;;;;;0.00;0.00;;;15.50;99.90;;;;;;5084559;28;20272;-78
2023/06/16 05:10:44;;;;;;;0.00;0.00;;;15.60;99.90;;;;;;5088234;28;20876;-78
2023/06/16 05:13:09;;;;;;;0.00;0.00;;;15.60;99.90;;;;;;5090308;28;20196;-79
2023/06/16 05:15:35;;;;;;;0.00;0.00;;;15.60;99.90;;;;;;5071807;28;20732;-79
2023/06/16 05:18:00;;;;;;;0.00;0.00;;;15.60;99.90;;;;;;5089788;28;20589;-79
2023/06/16 05:20:26;;;;;;;0.00;0.00;;;15.70;99.90;;;;;;5072804;28;20185;-79
2023/06/16 05:22:51;;;;;;;0.00;0.00;;;15.70;99.90;;;;;;5090106;28;20181;-79
2023/06/16 05:25:17;;;;;;;0.00;0.00;;;15.80;99.90;;;;;;5088042;28;20231;-78
2023/06/16 05:27:42;;;;;;;0.00;0.00;;;15.70;99.90;;;;;;5091858;28;20235;-79
2023/06/16 05:30:09;;;;;;;0.00;0.00;;;15.80;99.90;;;;;;5083543;28;20656;-79
2023/06/16 05:32:34;;;;;;;0.00;0.00;;;16.00;99.90;;;;;;5082031;28;20190;-79
2023/06/16 05:35:00;;;;;;;0.00;0.00;;;16.00;99.90;;;;;;5090404;28;20491;-79
2023/06/16 05:37:25;;;;;;;0.00;0.00;;;16.10;99.90;;;;;;5089512;28;20207;-80
2023/06/16 05:39:51;;;;;;;0.00;0.00;;;16.20;99.90;;;;;;5086739;28;21012;-79
2023/06/16 05:42:17;;;;;;;0.00;0.00;;;16.30;99.90;;;;;;5087051;28;20188;-79
2023/06/16 05:44:43;;;;;;;0.00;0.00;;;16.20;99.90;;;;;;5091219;28;20189;-79
2023/06/16 05:47:09;;;;;;;0.00;0.00;;;16.20;99.90;;;;;;5088226;28;20270;-79
2023/06/16 05:49:35;;;;;;;0.00;0.00;;;16.30;99.90;;;;;;5090007;28;20451;-79
2023/06/16 05:52:05;;;;;;;0.00;0.00;;;16.40;99.90;;;;;;5089654;28;20570;-79
2023/06/16 05:54:31;;;;;;;0.00;0.00;;;16.30;99.90;;;;;;5090725;28;20220;-79
2023/06/16 05:56:58;;;;;;;0.00;0.00;;;16.40;99.90;;;;;;5091085;28;20447;-79
2023/06/16 05:59:25;;;;;;;0.00;0.00;;;16.20;99.90;;;;;;5079861;28;20973;-81
2023/06/16 06:01:51;;;;;;;0.00;0.00;;;16.10;99.90;;;;;;5095980;28;20933;-80
2023/06/16 06:04:21;;;;;;;0.00;0.00;;;16.20;99.90;;;;;;5090834;28;20439;-80
2023/06/16 06:06:46;;;;;;;0.00;0.00;;;16.20;99.90;;;;;;5089283;28;20252;-79
2023/06/16 06:09:12;;;;;;;0.00;0.00;;;16.40;99.90;;;;;;5104961;28;20473;-79
2023/06/16 06:11:37;;;;;;;0.00;0.00;;;16.30;99.90;;;;;;5085387;28;20219;-80
2023/06/16 06:14:03;;;;;;;0.00;0.00;;;16.40;99.90;;;;;;5086858;28;20784;-79
2023/06/16 06:16:30;;;;;;;0.00;0.00;;;16.40;99.90;;;;;;5090608;28;20189;-80
2023/06/16 06:18:55;;;;;;;0.00;0.00;;;16.60;99.90;;;;;;5073124;28;20181;-79
2023/06/16 06:21:21;;;;;;;0.00;0.00;;;16.60;99.90;;;;;;5090530;28;20450;-80
2023/06/16 06:23:47;;;;;;;0.00;0.00;;;16.70;99.90;;;;;;5090666;28;20252;-80
2023/06/16 06:26:12;;;;;;;0.00;0.00;;;16.70;99.90;;;;;;5091224;28;20607;-79
2023/06/16 06:28:38;;;;;;;0.00;0.00;;;16.70;99.90;;;;;;5087883;28;20435;-79
2023/06/16 06:31:03;;;;;;;0.00;0.00;;;16.80;99.90;;;;;;5072415;28;20181;-79
2023/06/16 06:33:29;;;;;;;0.00;0.00;;;16.70;99.90;;;;;;5090652;28;20185;-79
2023/06/16 06:35:55;;;;;;;0.00;0.00;;;16.50;99.90;;;;;;5092981;28;20276;-79
2023/06/16 06:38:20;;;;;;;0.00;0.00;;;16.30;99.90;;;;;;5088166;28;20307;-79
2023/06/16 06:40:47;;;;;;;0.00;0.00;;;16.40;99.90;;;;;;5073017;28;20246;-79
2023/06/16 06:43:13;;;;;;;0.00;0.00;;;16.50;99.90;;;;;;5090845;28;20203;-79
2023/06/16 06:45:38;;;;;;;0.00;0.00;;;16.70;99.90;;;;;;5084682;28;20510;-78
2023/06/16 06:48:04;;;;;;;0.00;0.00;;;16.60;99.90;;;;;;5069743;28;20185;-78
2023/06/16 06:50:29;;;;;;;0.00;0.00;;;16.80;99.90;;;;;;5065342;28;20211;-77
2023/06/16 06:52:55;;;;;;;0.00;0.00;;;16.80;99.90;;;;;;5089712;28;20260;-77
2023/06/16 06:55:20;;;;;;;0.00;0.00;;;16.80;99.90;;;;;;5089723;28;20550;-77
2023/06/16 06:57:49;;;;;;;0.00;0.00;;;16.90;99.90;;;;;;5087729;28;20653;-77
2023/06/16 07:00:15;;;;;;;0.00;0.00;;;16.90;99.90;;;;;;5067769;28;20971;-78
2023/06/16 07:02:41;;;;;;;0.00;0.00;;;16.90;99.90;;;;;;5089539;28;20459;-78
2023/06/16 07:05:08;;;;;;;0.00;0.00;;;17.00;99.90;;;;;;5089500;28;20497;-78
2023/06/16 07:07:34;;;;;;;0.00;0.00;;;16.80;99.90;;;;;;5088714;28;20462;-78
2023/06/16 07:09:59;;;;;;;0.00;0.00;;;16.70;99.90;;;;;;5090044;28;20431;-78
2023/06/16 07:12:25;;;;;;;0.00;0.00;;;16.70;99.90;;;;;;5071235;28;20192;-77
2023/06/16 07:14:50;;;;;;;0.00;0.00;;;16.70;99.90;;;;;;5070859;28;20713;-78
2023/06/16 07:17:16;;;;;;;0.00;0.00;;;16.60;99.90;;;;;;5083704;28;20937;-78
2023/06/16 07:19:41;;;;;;;0.00;0.00;;;16.70;99.90;;;;;;5085363;28;20649;-78
2023/06/16 07:22:07;;;;;;;0.00;0.00;;;16.60;99.90;;;;;;5089738;28;20178;-79
2023/06/16 07:24:32;;;;;;;0.00;0.00;;;16.70;99.90;;;;;;5094614;28;20189;-79
2023/06/16 07:27:01;;;;;;;0.00;0.00;;;16.60;99.90;;;;;;5089604;28;20244;-78
2023/06/16 07:29:26;;;;;;;0.00;0.00;;;16.40;99.90;;;;;;5087759;28;20181;-78
2023/06/16 07:31:52;;;;;;;0.00;0.00;;;16.50;99.90;;;;;;5087336;28;20443;-78
2023/06/16 07:34:18;;;;;;;0.00;0.00;;;16.60;99.90;;;;;;5086022;28;20180;-77
2023/06/16 07:36:44;;;;;;;0.00;0.00;;;16.60;99.90;;;;;;5086041;28;20174;-78
2023/06/16 07:39:10;;;;;;;0.00;0.00;;;16.60;99.90;;;;;;5084784;28;20461;-78
2023/06/16 07:41:35;;;;;;;0.00;0.00;;;16.70;99.90;;;;;;5085290;28;20488;-78
2023/06/16 07:44:01;;;;;;;0.00;0.00;;;16.80;99.90;;;;;;5070506;28;20444;-78
2023/06/16 07:46:26;;;;;;;0.00;0.00;;;16.80;99.90;;;;;;5087308;28;20236;-78
2023/06/16 07:48:52;;;;;;;0.00;0.00;;;17.10;99.90;;;;;;5085830;28;20181;-78
2023/06/16 07:51:20;;;;;;;0.00;0.00;;;17.30;99.90;;;;;;5079818;28;20192;-78
2023/06/16 07:53:48;;;;;;;0.00;0.00;;;17.70;99.90;;;;;;5086244;28;20178;-79
2023/06/16 07:56:14;;;;;;;0.00;0.00;;;18.10;99.90;;;;;;5082932;28;20500;-77
2023/06/16 07:58:39;;;;;;;0.00;0.00;;;18.50;99.90;;;;;;5084068;28;20489;-78
2023/06/16 08:01:05;;;;;;;0.00;0.00;;;18.90;99.90;;;;;;5068184;28;20238;-78
2023/06/16 08:03:31;;;;;;;0.00;0.00;;;19.20;99.90;;;;;;5087849;28;20177;-78
2023/06/16 08:05:57;;;;;;;0.00;0.00;;;19.30;99.90;;;;;;5069501;28;20228;-79
2023/06/16 08:08:27;;;;;;;0.00;0.00;;;19.10;99.90;;;;;;5068493;28;20473;-78
2023/06/16 08:10:56;;;;;;;0.00;0.00;;;19.10;99.90;;;;;;5089892;28;20435;-78
2023/06/16 08:13:22;;;;;;;0.00;0.00;;;19.20;99.90;;;;;;5088341;28;20454;-78
2023/06/16 08:15:47;;;;;;;0.00;0.00;;;19.20;99.90;;;;;;5089283;28;20442;-79
2023/06/16 08:18:13;;;;;;;0.00;0.00;;;19.20;99.90;;;;;;5091125;28;20442;-79
2023/06/16 08:20:39;;;;;;;0.00;0.00;;;19.20;99.90;;;;;;5089896;28;20192;-78
2023/06/16 08:23:04;;;;;;;0.00;0.00;;;19.00;99.90;;;;;;5075888;28;20185;-79
2023/06/16 08:25:30;;;;;;;0.00;0.00;;;19.30;99.90;;;;;;5093245;28;20235;-79
2023/06/16 08:27:55;;;;;;;0.00;0.00;;;19.50;99.90;;;;;;5062768;28;20607;-78
2023/06/16 08:30:21;;;;;;;0.00;0.00;;;19.40;99.90;;;;;;5087087;28;20672;-77
2023/06/16 08:32:47;;;;;;;0.00;0.00;;;19.40;99.90;;;;;;5098118;28;20181;-78
2023/06/16 08:35:13;;;;;;;0.00;0.00;;;19.60;99.90;;;;;;5087411;28;20442;-78
2023/06/16 08:37:39;;;;;;;0.00;0.00;;;19.60;99.90;;;;;;5077895;28;20180;-78
2023/06/16 08:40:10;;;;;;;0.00;0.00;;;19.60;99.90;;;;;;5084819;28;20470;-78
2023/06/16 08:42:37;;;;;;;0.00;0.00;;;20.20;99.90;;;;;;5087092;28;21252;-77
2023/06/16 08:45:05;;;;;;;0.00;0.00;;;20.70;99.90;;;;;;5083550;28;20499;-77
2023/06/16 08:47:30;;;;;;;0.00;0.00;;;20.50;99.90;;;;;;5091903;28;20466;-77
2023/06/16 08:49:56;;;;;;;0.00;0.00;;;20.20;99.90;;;;;;5051188;28;22896;-77
2023/06/16 08:52:23;;;;;;;0.00;0.00;;;20.10;99.90;;;;;;5070962;28;20196;-77
2023/06/16 08:54:57;;;;;;;0.00;0.00;;;20.20;99.90;;;;;;5086313;28;20433;-77
2023/06/16 08:57:23;;;;;;;0.00;0.00;;;20.20;99.90;;;;;;5069979;28;20454;-77
2023/06/16 08:59:50;;;;;;;0.00;0.00;;;20.30;99.90;;;;;;5088018;28;20532;-77
2023/06/16 09:02:17;;;;;;;0.00;0.00;;;20.50;99.90;;;;;;5080336;28;20470;-77
2023/06/16 09:04:43;;;;;;;0.00;0.00;;;20.60;99.90;;;;;;5071318;28;20477;-77
2023/06/16 09:07:09;;;;;;;0.00;0.00;;;20.40;99.90;;;;;;5085391;28;20474;-77
2023/06/16 09:09:34;;;;;;;0.00;0.00;;;20.60;99.90;;;;;;5087680;28;21017;-77
2023/06/16 09:12:08;;;;;;;0.00;0.00;;;20.60;99.90;;;;;;5083067;28;20496;-75
2023/06/16 09:14:36;;;;;;;0.00;0.00;;;20.50;99.90;;;;;;5087510;28;20184;-76
2023/06/16 09:17:05;;;;;;;0.00;0.00;;;20.70;99.90;;;;;;5086438;28;20451;-77
2023/06/16 09:19:34;;;;;;;0.00;0.00;;;20.70;99.90;;;;;;5087511;28;20442;-75
2023/06/16 09:22:00;;;;;;;0.00;0.00;;;20.50;99.90;;;;;;5083452;28;20454;-77
2023/06/16 09:24:27;;;;;;;0.00;0.00;;;20.40;99.90;;;;;;5066183;28;21043;-77
2023/06/16 09:26:59;;;;;;;0.00;0.00;;;20.70;99.90;;;;;;5091440;28;20473;-77
2023/06/16 09:29:26;;;;;;;0.00;0.00;;;20.60;99.90;;;;;;5083957;28;20436;-77
2023/06/16 09:31:53;;;;;;;0.00;0.00;;;20.60;99.90;;;;;;5069577;28;20534;-77
2023/06/16 09:34:19;;;;;;;0.00;0.00;;;20.70;99.90;;;;;;5066511;28;20851;-77
2023/06/16 09:36:45;;;;;;;0.00;0.00;;;20.70;99.90;;;;;;5086556;28;21329;-77
2023/06/16 09:39:23;;;;;;;0.00;0.00;;;21.10;99.90;;;;;;5088464;28;20435;-78
2023/06/16 09:41:50;;;;;;;0.00;0.00;;;21.10;99.90;;;;;;5087259;28;20573;-78
2023/06/16 09:44:16;;;;;;;0.00;0.00;;;21.30;99.90;;;;;;5086140;28;20439;-77
2023/06/16 09:46:42;;;;;;;0.00;0.00;;;21.30;99.90;;;;;;5086266;28;20508;-77
2023/06/16 09:49:22;;;;;;;0.00;0.00;;;21.10;99.90;;;;;;5089603;28;20680;-77
2023/06/16 09:51:55;;;;;;;0.00;0.00;;;21.40;99.90;;;;;;5087346;28;20861;-77
2023/06/16 09:54:22;;;;;;;0.00;0.00;;;21.20;99.90;;;;;;5106224;28;20804;-77
2023/06/16 09:56:48;;;;;;;0.00;0.00;;;21.50;99.90;;;;;;5090693;28;20453;-77
2023/06/16 09:59:15;;;;;;;0.00;0.00;;;21.60;99.90;;;;;;5090474;28;20431;-78
2023/06/16 10:01:43;;;;;;;0.00;0.00;;;21.50;99.90;;;;;;5070315;28;20465;-78
2023/06/16 10:04:10;;;;;;;0.00;0.00;;;21.30;99.90;;;;;;5090100;28;20805;-77
2023/06/16 10:06:47;;;;;;;0.00;0.00;;;21.10;99.90;;;;;;5090152;28;20920;-78
2023/06/16 10:09:16;;;;;;;0.00;0.00;;;21.00;99.90;;;;;;5089225;28;20441;-77
2023/06/16 10:11:42;;;;;;;0.00;0.00;;;21.00;99.90;;;;;;5070630;28;20551;-78
2023/06/16 10:14:09;;;;;;;0.00;0.00;;;21.00;99.90;;;;;;5090098;28;20534;-78
2023/06/16 10:16:36;;;;;;;0.00;0.00;;;21.20;99.90;;;;;;5090164;28;21305;-78
2023/06/16 10:19:04;;;;;;;0.00;0.00;;;21.20;99.90;;;;;;5088963;28;20477;-75
2023/06/16 10:21:31;;;;;;;0.00;0.00;;;21.30;99.90;;;;;;5086611;28;21493;-75
2023/06/16 10:23:57;;;;;;;0.00;0.00;;;21.20;99.90;;;;;;5071528;28;20439;-73
2023/06/16 10:26:23;;;;;;;0.00;0.00;;;21.10;99.90;;;;;;5066914;28;20846;-75
2023/06/16 10:28:49;;;;;;;0.00;0.00;;;21.00;99.90;;;;;;5090205;28;20185;-76
2023/06/16 10:31:16;;;;;;;0.00;0.00;;;21.00;99.90;;;;;;5085832;28;20950;-75
2023/06/16 10:33:55;;;;;;;0.00;0.00;;;21.00;99.90;;;;;;5085052;28;21135;-75
2023/06/16 10:36:31;;;;;;;0.00;0.00;;;21.10;99.90;;;;;;5085365;28;20446;-75
2023/06/16 10:39:09;;;;;;;0.00;0.00;;;21.10;99.90;;;;;;5085980;28;21183;-75
2023/06/16 10:41:54;;;;;;;0.00;0.00;;;21.10;99.90;;;;;;5087855;28;20495;-76
2023/06/16 10:44:30;;;;;;;0.00;0.00;;;21.00;99.90;;;;;;5060249;28;20510;-75
2023/06/16 10:47:07;;;;;;;0.00;0.00;;;21.00;99.90;;;;;;5100517;28;20512;-75
2023/06/16 10:49:46;;;;;;;0.00;0.00;;;21.20;99.90;;;;;;5104180;28;20483;-75
2023/06/16 10:52:18;;;;;;;0.00;0.00;;;21.00;99.90;;;;;;5091029;28;20434;-75
2023/06/16 10:54:48;;;;;;;0.00;0.00;;;21.10;99.90;;;;;;5071233;28;20431;-76
2023/06/16 10:57:14;;;;;;;0.00;0.00;;;21.00;99.90;;;;;;5105649;28;20438;-76
2023/06/16 11:00:10;;;;;;;0.00;0.00;;;21.00;99.90;;;;;;5091049;28;20450;-76
2023/06/16 11:02:37;;;;;;;0.00;0.00;;;21.00;99.90;;;;;;5076426;28;20443;-76
2023/06/16 11:05:12;;;;;;;0.00;0.00;;;21.00;99.90;;;;;;5094975;28;20478;-76
2023/06/16 11:07:42;;;;;;;0.00;0.00;;;21.10;99.90;;;;;;5086821;28;20884;-76
2023/06/16 11:10:10;;;;;;;0.00;0.00;;;21.30;99.90;;;;;;5071001;28;20439;-76
2023/06/16 11:12:36;;;;;;;0.00;0.00;;;21.50;99.90;;;;;;5090699;28;20447;-76
2023/06/16 11:15:03;;;;;;;0.00;0.00;;;21.60;99.90;;;;;;5088844;28;21028;-76
2023/06/16 11:17:29;;;;;;;0.00;0.00;;;21.60;99.90;;;;;;5087797;28;20447;-76
2023/06/16 11:19:55;;;;;;;0.00;0.00;;;21.50;99.90;;;;;;5086528;28;20449;-76
2023/06/16 11:22:31;;;;;;;0.00;0.00;;;21.50;99.90;;;;;;5089361;28;20178;-76
2023/06/16 11:24:57;;;;;;;0.00;0.00;;;21.30;99.90;;;;;;5076237;28;20966;-76
2023/06/16 11:27:25;;;;;;;0.00;0.00;;;21.20;99.90;;;;;;5090639;28;20493;-76
2023/06/16 11:29:53;;;;;;;0.00;0.00;;;21.30;99.90;;;;;;5068464;28;20234;-76
2023/06/16 11:32:27;;;;;;;0.00;0.00;;;21.40;99.90;;;;;;5084755;28;20447;-76
2023/06/16 11:34:55;;;;;;;0.00;0.00;;;21.60;99.90;;;;;;5091354;28;20453;-76
2023/06/16 11:37:21;;;;;;;0.00;0.00;;;21.60;99.90;;;;;;5071261;28;20423;-76
2023/06/16 11:39:46;;;;;;;0.00;0.00;;;21.40;99.90;;;;;;5070774;28;20439;-76
2023/06/16 11:42:16;;;;;;;0.00;0.00;;;21.40;99.90;;;;;;5086919;28;20430;-76
2023/06/16 11:44:42;;;;;;;0.00;0.00;;;21.40;99.90;;;;;;5082290;28;20207;-76
2023/06/16 11:47:09;;;;;;;0.00;0.00;;;21.40;99.90;;;;;;5086792;28;20512;-73
2023/06/16 11:49:36;;;;;;;0.00;0.00;;;21.50;99.90;;;;;;5088937;28;20815;-73
2023/06/16 11:52:05;;;;;;;0.00;0.00;;;21.40;99.90;;;;;;5089641;28;20813;-73
2023/06/16 11:54:30;;;;;;;0.00;0.00;;;21.50;99.90;;;;;;5092451;28;20439;-73
2023/06/16 11:56:59;;;;;;;0.00;0.00;;;21.50;99.90;;;;;;5087794;28;20488;-75
2023/06/16 11:59:30;;;;;;;0.00;0.00;;;21.40;99.90;;;;;;5089447;28;20280;-76
2023/06/16 12:01:57;;;;;;;0.00;0.00;;;21.60;99.90;;;;;;5076761;28;21156;-76
2023/06/16 12:04:25;;;;;;;0.00;0.00;;;21.80;99.90;;;;;;5099395;28;20438;-76
2023/06/16 12:06:50;;;;;;;0.00;0.00;;;22.00;99.90;;;;;;5080761;28;20493;-76
2023/06/16 12:09:19;;;;;;;0.00;0.00;;;22.10;99.90;;;;;;5071360;28;20451;-75
2023/06/16 12:12:07;;;;;;;0.00;0.00;;;22.00;99.90;;;;;;5085428;28;20193;-76
2023/06/16 12:14:35;;;;;;;0.00;0.00;;;22.10;99.90;;;;;;5084951;28;20435;-75
2023/06/16 12:17:03;;;;;;;0.00;0.00;;;22.30;99.90;;;;;;5086733;28;20439;-76
2023/06/16 12:19:28;;;;;;;0.00;0.00;;;22.60;99.90;;;;;;5085995;28;20442;-76
2023/06/16 12:22:01;;;;;;;0.00;0.00;;;22.80;99.90;;;;;;5085300;28;20434;-76
2023/06/16 12:24:27;;;;;;;0.00;0.00;;;23.10;99.90;;;;;;5088800;28;20608;-76
2023/06/16 12:26:53;;;;;;;0.00;0.00;;;23.60;99.90;;;;;;5061254;28;21025;-76
2023/06/16 12:29:20;;;;;;;0.00;0.00;;;23.70;99.90;;;;;;5071795;28;20442;-76
2023/06/16 12:31:53;;;;;;;0.00;0.00;;;23.50;99.90;;;;;;5082614;28;20281;-76
2023/06/16 12:34:35;;;;;;;0.00;0.00;;;23.30;99.90;;;;;;5082816;28;20508;-76
2023/06/16 12:37:07;;;;;;;0.00;0.00;;;23.10;99.90;;;;;;5087626;28;20442;-76
2023/06/16 12:39:34;;;;;;;0.00;0.00;;;23.50;99.90;;;;;;5089734;28;20482;-77
2023/06/16 12:42:02;;;;;;;0.00;0.00;;;24.00;99.90;;;;;;5085885;28;21228;-76
2023/06/16 12:44:46;;;;;;;0.00;0.00;;;24.20;99.90;;;;;;5089984;28;21249;-76
2023/06/16 12:47:13;;;;;;;0.00;0.00;;;24.50;99.90;;;;;;5089448;28;20481;-77
2023/06/16 12:49:39;;;;;;;0.00;0.00;;;24.70;99.90;;;;;;5072324;28;20543;-74